sensor_id;sensor_type;location;lat;lon;timestamp;temperature;humidity
9509;DHT22;4792;50.088;8.122;2022-11-12T00:01:13;5.40;99.90
9509;DHT22;4792;50.088;8.122;2022-11-12T00:03:44;5.40;99.90
9509;DHT22;4792;50.088;8.122;2022-11-12T00:06:12;5.50;99.90
9509;DHT22;4792;50.088;8.122;2022-11-12T00:08:40;5.40;99.90
9509;DHT22;4792;50.088;8.122;2022-11-12T00:11:08;5.40;99.90
9509;DHT22;4792;50.088;8.122;2022-11-12T00:13:36;5.50;99.90
9509;DHT22;4792;50.088;8.122;2022-11-12T00:16:05;5.50;99.90
9509;DHT22;4792;50.088;8.122;2022-11-12T00:18:33;5.50;99.90
9509;DHT22;4792;50.088;8.122;2022-11-12T00:21:03;5.50;99.90
9509;DHT22;4792;50.088;8.122;2022-11-12T00:23:31;5.50;99.90
9509;DHT22;4792;50.088;8.122;2022-11-12T00:26:00;5.50;99.90
9509;DHT22;4792;50.088;8.122;2022-11-12T00:28:28;5.50;99.90
9509;DHT22;4792;50.088;8.122;2022-11-12T00:31:07;5.50;99.90
9509;DHT22;4792;50.088;8.122;2022-11-12T00:33:38;5.50;99.90
9509;DHT22;4792;50.088;8.122;2022-11-12T00:36:09;5.50;99.90
9509;DHT22;4792;50.088;8.122;2022-11-12T00:38:37;5.40;99.90
9509;DHT22;4792;50.088;8.122;2022-11-12T00:41:05;5.40;99.90
9509;DHT22;4792;50.088;8.122;2022-11-12T00:43:34;5.40;99.90
9509;DHT22;4792;50.088;8.122;2022-11-12T00:46:02;5.40;99.90
9509;DHT22;4792;50.088;8.122;2022-11-12T00:48:30;5.40;99.90
9509;DHT22;4792;50.088;8.122;2022-11-12T00:51:00;5.30;99.90
9509;DHT22;4792;50.088;8.122;2022-11-12T00:53:30;5.40;99.90
9509;DHT22;4792;50.088;8.122;2022-11-12T00:55:59;5.40;99.90
9509;DHT22;4792;50.088;8.122;2022-11-12T00:58:29;5.40;99.90
9509;DHT22;4792;50.088;8.122;2022-11-12T01:00:57;5.40;99.90
9509;DHT22;4792;50.088;8.122;2022-11-12T01:03:31;5.30;99.90
9509;DHT22;4792;50.088;8.122;2022-11-12T01:06:01;5.30;99.90
9509;DHT22;4792;50.088;8.122;2022-11-12T01:08:31;5.40;99.90
9509;DHT22;4792;50.088;8.122;2022-11-12T01:11:05;5.30;99.90
9509;DHT22;4792;50.088;8.122;2022-11-12T01:13:33;5.30;99.90
9509;DHT22;4792;50.088;8.122;2022-11-12T01:16:11;5.30;99.90
9509;DHT22;4792;50.088;8.122;2022-11-12T01:18:40;5.30;99.90
9509;DHT22;4792;50.088;8.122;2022-11-12T01:21:09;5.30;99.90
9509;DHT22;4792;50.088;8.122;2022-11-12T01:23:40;5.20;99.90
9509;DHT22;4792;50.088;8.122;2022-11-12T01:26:11;5.20;99.90
9509;DHT22;4792;50.088;8.122;2022-11-12T01:28:40;5.20;99.90
9509;DHT22;4792;50.088;8.122;2022-11-12T01:31:09;5.10;99.90
9509;DHT22;4792;50.088;8.122;2022-11-12T01:33:38;5.00;99.90
9509;DHT22;4792;50.088;8.122;2022-11-12T01:36:07;5.00;99.90
9509;DHT22;4792;50.088;8.122;2022-11-12T01:38:37;5.00;99.90
9509;DHT22;4792;50.088;8.122;2022-11-12T01:41:07;5.00;99.90
9509;DHT22;4792;50.088;8.122;2022-11-12T01:43:36;4.90;99.90
9509;DHT22;4792;50.088;8.122;2022-11-12T01:46:09;4.90;99.90
9509;DHT22;4792;50.088;8.122;2022-11-12T01:48:45;4.80;99.90
9509;DHT22;4792;50.088;8.122;2022-11-12T01:51:14;4.80;99.90
9509;DHT22;4792;50.088;8.122;2022-11-12T01:53:46;4.90;99.90
9509;DHT22;4792;50.088;8.122;2022-11-12T01:56:17;4.90;99.90
9509;DHT22;4792;50.088;8.122;2022-11-12T01:58:49;4.90;99.90
9509;DHT22;4792;50.088;8.122;2022-11-12T02:01:19;4.80;99.90
9509;DHT22;4792;50.088;8.122;2022-11-12T02:03:47;4.80;99.90
9509;DHT22;4792;50.088;8.122;2022-11-12T02:06:16;4.70;99.90
9509;DHT22;4792;50.088;8.122;2022-11-12T02:08:47;4.70;99.90
9509;DHT22;4792;50.088;8.122;2022-11-12T02:11:17;4.70;99.90
9509;DHT22;4792;50.088;8.122;2022-11-12T02:13:46;4.50;99.90
9509;DHT22;4792;50.088;8.122;2022-11-12T02:16:30;4.50;99.90
9509;DHT22;4792;50.088;8.122;2022-11-12T02:19:01;4.40;99.90
9509;DHT22;4792;50.088;8.122;2022-11-12T02:21:30;4.50;99.90
9509;DHT22;4792;50.088;8.122;2022-11-12T02:24:01;4.50;99.90
9509;DHT22;4792;50.088;8.122;2022-11-12T02:26:32;4.60;99.90
9509;DHT22;4792;50.088;8.122;2022-11-12T02:29:02;4.60;99.90
9509;DHT22;4792;50.088;8.122;2022-11-12T02:31:30;4.70;99.90
9509;DHT22;4792;50.088;8.122;2022-11-12T02:33:58;5.00;99.90
9509;DHT22;4792;50.088;8.122;2022-11-12T02:36:27;5.00;99.90
9509;DHT22;4792;50.088;8.122;2022-11-12T02:38:57;5.10;99.90
9509;DHT22;4792;50.088;8.122;2022-11-12T02:41:25;5.20;99.90
9509;DHT22;4792;50.088;8.122;2022-11-12T02:43:53;5.30;99.90
9509;DHT22;4792;50.088;8.122;2022-11-12T02:46:22;5.40;99.90
9509;DHT22;4792;50.088;8.122;2022-11-12T02:48:50;5.60;99.90
9509;DHT22;4792;50.088;8.122;2022-11-12T02:51:18;5.70;99.90
9509;DHT22;4792;50.088;8.122;2022-11-12T02:53:46;5.80;99.90
9509;DHT22;4792;50.088;8.122;2022-11-12T02:56:16;5.80;99.90
9509;DHT22;4792;50.088;8.122;2022-11-12T02:58:44;5.90;99.90
9509;DHT22;4792;50.088;8.122;2022-11-12T03:01:12;6.00;99.90
9509;DHT22;4792;50.088;8.122;2022-11-12T03:03:40;6.10;99.90
9509;DHT22;4792;50.088;8.122;2022-11-12T03:06:08;6.20;99.90
9509;DHT22;4792;50.088;8.122;2022-11-12T03:08:36;6.30;99.90
9509;DHT22;4792;50.088;8.122;2022-11-12T03:11:08;6.30;99.90
9509;DHT22;4792;50.088;8.122;2022-11-12T03:13:38;6.40;99.90
9509;DHT22;4792;50.088;8.122;2022-11-12T03:16:07;6.50;99.90
9509;DHT22;4792;50.088;8.122;2022-11-12T03:18:35;6.40;99.90
9509;DHT22;4792;50.088;8.122;2022-11-12T03:21:04;6.40;99.90
9509;DHT22;4792;50.088;8.122;2022-11-12T03:23:33;6.20;99.90
9509;DHT22;4792;50.088;8.122;2022-11-12T03:26:02;6.10;99.90
9509;DHT22;4792;50.088;8.122;2022-11-12T03:28:30;5.80;99.90
9509;DHT22;4792;50.088;8.122;2022-11-12T03:31:00;5.50;99.90
9509;DHT22;4792;50.088;8.122;2022-11-12T03:33:28;5.30;99.90
9509;DHT22;4792;50.088;8.122;2022-11-12T03:35:57;5.10;99.90
9509;DHT22;4792;50.088;8.122;2022-11-12T03:38:25;4.90;99.90
9509;DHT22;4792;50.088;8.122;2022-11-12T03:40:53;4.80;99.90
9509;DHT22;4792;50.088;8.122;2022-11-12T03:43:22;4.70;99.90
9509;DHT22;4792;50.088;8.122;2022-11-12T03:45:50;4.70;99.90
9509;DHT22;4792;50.088;8.122;2022-11-12T03:48:19;4.70;99.90
9509;DHT22;4792;50.088;8.122;2022-11-12T03:50:47;4.60;99.90
9509;DHT22;4792;50.088;8.122;2022-11-12T03:53:15;4.60;99.90
9509;DHT22;4792;50.088;8.122;2022-11-12T03:55:44;4.60;99.90
9509;DHT22;4792;50.088;8.122;2022-11-12T03:58:12;4.50;99.90
9509;DHT22;4792;50.088;8.122;2022-11-12T04:00:40;4.50;99.90
9509;DHT22;4792;50.088;8.122;2022-11-12T04:03:08;4.50;99.90
9509;DHT22;4792;50.088;8.122;2022-11-12T04:05:38;4.60;99.90
9509;DHT22;4792;50.088;8.122;2022-11-12T04:08:24;4.60;99.90
9509;DHT22;4792;50.088;8.122;2022-11-12T04:11:05;4.50;99.90
9509;DHT22;4792;50.088;8.122;2022-11-12T04:13:34;4.40;99.90
9509;DHT22;4792;50.088;8.122;2022-11-12T04:16:06;4.30;99.90
9509;DHT22;4792;50.088;8.122;2022-11-12T04:19:01;4.30;99.90
9509;DHT22;4792;50.088;8.122;2022-11-12T04:21:49;4.30;99.90
9509;DHT22;4792;50.088;8.122;2022-11-12T04:24:23;4.20;99.90
9509;DHT22;4792;50.088;8.122;2022-11-12T04:27:12;4.20;99.90
9509;DHT22;4792;50.088;8.122;2022-11-12T04:29:40;4.30;99.90
9509;DHT22;4792;50.088;8.122;2022-11-12T04:32:26;4.30;99.90
9509;DHT22;4792;50.088;8.122;2022-11-12T04:34:54;4.20;99.90
9509;DHT22;4792;50.088;8.122;2022-11-12T04:37:25;4.20;99.90
9509;DHT22;4792;50.088;8.122;2022-11-12T04:39:54;4.10;99.90
9509;DHT22;4792;50.088;8.122;2022-11-12T04:42:46;4.10;99.90
9509;DHT22;4792;50.088;8.122;2022-11-12T04:45:40;4.10;99.90
9509;DHT22;4792;50.088;8.122;2022-11-12T04:48:09;4.00;99.90
9509;DHT22;4792;50.088;8.122;2022-11-12T04:50:37;4.00;99.90
9509;DHT22;4792;50.088;8.122;2022-11-12T04:53:07;4.00;99.90
9509;DHT22;4792;50.088;8.122;2022-11-12T04:55:35;3.90;99.90
9509;DHT22;4792;50.088;8.122;2022-11-12T04:58:03;3.90;99.90
9509;DHT22;4792;50.088;8.122;2022-11-12T05:00:31;3.90;99.90
9509;DHT22;4792;50.088;8.122;2022-11-12T05:03:00;4.00;99.90
9509;DHT22;4792;50.088;8.122;2022-11-12T05:05:28;4.00;99.90
9509;DHT22;4792;50.088;8.122;2022-11-12T05:08:00;4.00;99.90
9509;DHT22;4792;50.088;8.122;2022-11-12T05:10:29;4.00;99.90
9509;DHT22;4792;50.088;8.122;2022-11-12T05:12:57;4.00;99.90
9509;DHT22;4792;50.088;8.122;2022-11-12T05:15:25;4.10;99.90
9509;DHT22;4792;50.088;8.122;2022-11-12T05:17:54;4.10;99.90
9509;DHT22;4792;50.088;8.122;2022-11-12T05:20:22;4.10;99.90
9509;DHT22;4792;50.088;8.122;2022-11-12T05:22:50;4.20;99.90
9509;DHT22;4792;50.088;8.122;2022-11-12T05:25:34;4.20;99.90
9509;DHT22;4792;50.088;8.122;2022-11-12T05:28:02;4.30;99.90
9509;DHT22;4792;50.088;8.122;2022-11-12T05:30:33;4.30;99.90
9509;DHT22;4792;50.088;8.122;2022-11-12T05:33:01;4.40;99.90
9509;DHT22;4792;50.088;8.122;2022-11-12T05:35:29;4.50;99.90
9509;DHT22;4792;50.088;8.122;2022-11-12T05:37:57;4.50;99.90
9509;DHT22;4792;50.088;8.122;2022-11-12T05:40:25;4.60;99.90
9509;DHT22;4792;50.088;8.122;2022-11-12T05:42:55;4.60;99.90
9509;DHT22;4792;50.088;8.122;2022-11-12T05:45:23;4.60;99.90
9509;DHT22;4792;50.088;8.122;2022-11-12T05:47:51;4.60;99.90
9509;DHT22;4792;50.088;8.122;2022-11-12T05:50:19;4.70;99.90
9509;DHT22;4792;50.088;8.122;2022-11-12T05:52:47;4.70;99.90
9509;DHT22;4792;50.088;8.122;2022-11-12T05:55:15;4.70;99.90
9509;DHT22;4792;50.088;8.122;2022-11-12T05:57:43;4.70;99.90
9509;DHT22;4792;50.088;8.122;2022-11-12T06:00:13;4.70;99.90
9509;DHT22;4792;50.088;8.122;2022-11-12T06:02:42;4.80;99.90
9509;DHT22;4792;50.088;8.122;2022-11-12T06:05:10;4.80;99.90
9509;DHT22;4792;50.088;8.122;2022-11-12T06:07:38;4.80;99.90
9509;DHT22;4792;50.088;8.122;2022-11-12T06:10:07;4.80;99.90
9509;DHT22;4792;50.088;8.122;2022-11-12T06:12:35;4.90;99.90
9509;DHT22;4792;50.088;8.122;2022-11-12T06:15:04;4.90;99.90
9509;DHT22;4792;50.088;8.122;2022-11-12T06:17:33;4.90;99.90
9509;DHT22;4792;50.088;8.122;2022-11-12T06:20:02;4.90;99.90
9509;DHT22;4792;50.088;8.122;2022-11-12T06:22:30;5.10;99.90
9509;DHT22;4792;50.088;8.122;2022-11-12T06:24:58;5.00;99.90
9509;DHT22;4792;50.088;8.122;2022-11-12T06:27:26;5.00;99.90
9509;DHT22;4792;50.088;8.122;2022-11-12T06:29:54;5.00;99.90
9509;DHT22;4792;50.088;8.122;2022-11-12T06:32:23;4.90;99.90
9509;DHT22;4792;50.088;8.122;2022-11-12T06:34:53;4.90;99.90
9509;DHT22;4792;50.088;8.122;2022-11-12T06:37:21;4.90;99.90
9509;DHT22;4792;50.088;8.122;2022-11-12T06:39:49;4.90;99.90
9509;DHT22;4792;50.088;8.122;2022-11-12T06:42:17;5.00;99.90
9509;DHT22;4792;50.088;8.122;2022-11-12T06:44:45;5.00;99.90
9509;DHT22;4792;50.088;8.122;2022-11-12T06:47:13;5.00;99.90
9509;DHT22;4792;50.088;8.122;2022-11-12T06:49:41;5.00;99.90
9509;DHT22;4792;50.088;8.122;2022-11-12T06:52:11;5.00;99.90
9509;DHT22;4792;50.088;8.122;2022-11-12T06:54:42;5.00;99.90
9509;DHT22;4792;50.088;8.122;2022-11-12T06:57:10;5.00;99.90
9509;DHT22;4792;50.088;8.122;2022-11-12T06:59:39;5.10;99.90
9509;DHT22;4792;50.088;8.122;2022-11-12T07:02:09;5.10;99.90
9509;DHT22;4792;50.088;8.122;2022-11-12T07:04:38;5.00;99.90
9509;DHT22;4792;50.088;8.122;2022-11-12T07:07:06;4.90;99.90
9509;DHT22;4792;50.088;8.122;2022-11-12T07:09:38;5.00;99.90
9509;DHT22;4792;50.088;8.122;2022-11-12T07:12:06;5.00;99.90
9509;DHT22;4792;50.088;8.122;2022-11-12T07:14:34;5.00;99.90
9509;DHT22;4792;50.088;8.122;2022-11-12T07:17:03;5.00;99.90
9509;DHT22;4792;50.088;8.122;2022-11-12T07:19:31;5.00;99.90
9509;DHT22;4792;50.088;8.122;2022-11-12T07:21:59;5.00;99.90
9509;DHT22;4792;50.088;8.122;2022-11-12T07:24:27;5.00;99.90
9509;DHT22;4792;50.088;8.122;2022-11-12T07:26:57;5.10;99.90
9509;DHT22;4792;50.088;8.122;2022-11-12T07:29:25;5.10;99.90
9509;DHT22;4792;50.088;8.122;2022-11-12T07:32:12;5.10;99.90
9509;DHT22;4792;50.088;8.122;2022-11-12T07:34:40;5.20;99.90
9509;DHT22;4792;50.088;8.122;2022-11-12T07:37:08;5.20;99.90
9509;DHT22;4792;50.088;8.122;2022-11-12T07:39:36;5.20;99.90
9509;DHT22;4792;50.088;8.122;2022-11-12T07:42:06;5.30;99.90
9509;DHT22;4792;50.088;8.122;2022-11-12T07:44:34;5.40;99.90
9509;DHT22;4792;50.088;8.122;2022-11-12T07:47:02;5.50;99.90
9509;DHT22;4792;50.088;8.122;2022-11-12T07:49:33;5.60;99.90
9509;DHT22;4792;50.088;8.122;2022-11-12T07:52:01;5.70;99.90
9509;DHT22;4792;50.088;8.122;2022-11-12T07:54:29;5.90;99.90
9509;DHT22;4792;50.088;8.122;2022-11-12T07:56:58;5.90;99.90
9509;DHT22;4792;50.088;8.122;2022-11-12T07:59:27;6.00;99.90
9509;DHT22;4792;50.088;8.122;2022-11-12T08:01:55;6.20;99.90
9509;DHT22;4792;50.088;8.122;2022-11-12T08:04:23;6.20;99.90
9509;DHT22;4792;50.088;8.122;2022-11-12T08:06:51;6.30;99.90
9509;DHT22;4792;50.088;8.122;2022-11-12T08:09:19;6.40;99.90
9509;DHT22;4792;50.088;8.122;2022-11-12T08:11:48;6.40;99.90
9509;DHT22;4792;50.088;8.122;2022-11-12T08:14:16;6.50;99.90
9509;DHT22;4792;50.088;8.122;2022-11-12T08:16:45;6.60;99.90
9509;DHT22;4792;50.088;8.122;2022-11-12T08:19:13;6.80;99.90
9509;DHT22;4792;50.088;8.122;2022-11-12T08:21:41;7.00;99.90
9509;DHT22;4792;50.088;8.122;2022-11-12T08:24:10;7.10;99.90
9509;DHT22;4792;50.088;8.122;2022-11-12T08:26:38;7.20;99.90
9509;DHT22;4792;50.088;8.122;2022-11-12T08:29:06;7.40;99.90
9509;DHT22;4792;50.088;8.122;2022-11-12T08:31:35;7.50;99.90
9509;DHT22;4792;50.088;8.122;2022-11-12T08:34:04;7.50;99.90
9509;DHT22;4792;50.088;8.122;2022-11-12T08:36:43;7.50;99.90
9509;DHT22;4792;50.088;8.122;2022-11-12T08:39:11;7.60;99.90
9509;DHT22;4792;50.088;8.122;2022-11-12T08:41:39;7.70;99.90
9509;DHT22;4792;50.088;8.122;2022-11-12T08:44:07;7.80;99.90
9509;DHT22;4792;50.088;8.122;2022-11-12T08:46:35;7.80;99.90
9509;DHT22;4792;50.088;8.122;2022-11-12T08:49:04;7.90;99.90
9509;DHT22;4792;50.088;8.122;2022-11-12T08:51:32;7.80;99.90
9509;DHT22;4792;50.088;8.122;2022-11-12T08:54:01;7.70;99.90
9509;DHT22;4792;50.088;8.122;2022-11-12T08:56:29;7.60;99.90
9509;DHT22;4792;50.088;8.122;2022-11-12T08:58:57;7.50;99.90
9509;DHT22;4792;50.088;8.122;2022-11-12T09:01:29;7.50;99.90
9509;DHT22;4792;50.088;8.122;2022-11-12T09:03:57;7.60;99.90
9509;DHT22;4792;50.088;8.122;2022-11-12T09:06:27;7.70;99.90
9509;DHT22;4792;50.088;8.122;2022-11-12T09:08:55;7.70;99.90
9509;DHT22;4792;50.088;8.122;2022-11-12T09:11:23;7.80;99.90
9509;DHT22;4792;50.088;8.122;2022-11-12T09:13:52;7.90;99.90
9509;DHT22;4792;50.088;8.122;2022-11-12T09:16:20;7.90;99.90
9509;DHT22;4792;50.088;8.122;2022-11-12T09:18:49;7.90;99.90
9509;DHT22;4792;50.088;8.122;2022-11-12T09:21:18;8.00;99.90
9509;DHT22;4792;50.088;8.122;2022-11-12T09:23:51;7.90;99.90
9509;DHT22;4792;50.088;8.122;2022-11-12T09:26:20;7.90;99.90
9509;DHT22;4792;50.088;8.122;2022-11-12T09:28:48;7.80;99.90
9509;DHT22;4792;50.088;8.122;2022-11-12T09:31:18;7.70;99.90
9509;DHT22;4792;50.088;8.122;2022-11-12T09:33:46;7.60;99.90
9509;DHT22;4792;50.088;8.122;2022-11-12T09:36:14;7.50;99.90
9509;DHT22;4792;50.088;8.122;2022-11-12T09:38:43;7.50;99.90
9509;DHT22;4792;50.088;8.122;2022-11-12T09:41:22;7.40;99.90
9509;DHT22;4792;50.088;8.122;2022-11-12T09:43:54;7.40;99.90
9509;DHT22;4792;50.088;8.122;2022-11-12T09:46:30;7.40;99.90
9509;DHT22;4792;50.088;8.122;2022-11-12T09:49:05;7.20;99.90
9509;DHT22;4792;50.088;8.122;2022-11-12T09:51:36;7.20;99.90
9509;DHT22;4792;50.088;8.122;2022-11-12T09:54:16;7.20;99.90
9509;DHT22;4792;50.088;8.122;2022-11-12T09:56:47;7.20;99.90
9509;DHT22;4792;50.088;8.122;2022-11-12T09:59:16;7.20;99.90
9509;DHT22;4792;50.088;8.122;2022-11-12T10:02:04;7.30;99.90
9509;DHT22;4792;50.088;8.122;2022-11-12T10:04:53;7.40;99.90
9509;DHT22;4792;50.088;8.122;2022-11-12T10:07:35;7.40;99.90
9509;DHT22;4792;50.088;8.122;2022-11-12T10:10:11;7.40;99.90
9509;DHT22;4792;50.088;8.122;2022-11-12T10:12:59;7.40;99.90
9509;DHT22;4792;50.088;8.122;2022-11-12T10:15:37;7.40;99.90
9509;DHT22;4792;50.088;8.122;2022-11-12T10:18:31;7.40;99.90
9509;DHT22;4792;50.088;8.122;2022-11-12T10:21:13;7.20;99.90
9509;DHT22;4792;50.088;8.122;2022-11-12T10:23:45;7.20;99.90
9509;DHT22;4792;50.088;8.122;2022-11-12T10:26:15;7.30;99.90
9509;DHT22;4792;50.088;8.122;2022-11-12T10:28:49;7.40;99.90
9509;DHT22;4792;50.088;8.122;2022-11-12T10:31:19;7.50;99.90
9509;DHT22;4792;50.088;8.122;2022-11-12T10:33:47;7.70;99.90
9509;DHT22;4792;50.088;8.122;2022-11-12T10:36:27;7.90;99.90
9509;DHT22;4792;50.088;8.122;2022-11-12T10:38:56;8.10;99.90
9509;DHT22;4792;50.088;8.122;2022-11-12T10:41:26;8.10;99.90
9509;DHT22;4792;50.088;8.122;2022-11-12T10:43:58;8.20;99.90
9509;DHT22;4792;50.088;8.122;2022-11-12T10:46:28;8.30;99.90
9509;DHT22;4792;50.088;8.122;2022-11-12T10:48:59;8.30;99.90
9509;DHT22;4792;50.088;8.122;2022-11-12T10:51:30;8.30;99.90
9509;DHT22;4792;50.088;8.122;2022-11-12T10:54:00;8.30;99.90
9509;DHT22;4792;50.088;8.122;2022-11-12T10:56:45;8.30;99.90
9509;DHT22;4792;50.088;8.122;2022-11-12T10:59:22;8.20;99.90
9509;DHT22;4792;50.088;8.122;2022-11-12T11:01:54;8.40;99.90
9509;DHT22;4792;50.088;8.122;2022-11-12T11:04:28;8.40;99.90
9509;DHT22;4792;50.088;8.122;2022-11-12T11:07:03;8.40;99.90
9509;DHT22;4792;50.088;8.122;2022-11-12T11:09:33;8.40;99.90
9509;DHT22;4792;50.088;8.122;2022-11-12T11:12:01;8.50;99.90
9509;DHT22;4792;50.088;8.122;2022-11-12T11:14:33;8.50;99.90
9509;DHT22;4792;50.088;8.122;2022-11-12T11:17:03;8.60;99.90
9509;DHT22;4792;50.088;8.122;2022-11-12T11:19:37;8.80;99.90
9509;DHT22;4792;50.088;8.122;2022-11-12T11:22:34;8.90;99.90
9509;DHT22;4792;50.088;8.122;2022-11-12T11:25:18;9.00;99.90
9509;DHT22;4792;50.088;8.122;2022-11-12T11:27:59;9.00;99.90
9509;DHT22;4792;50.088;8.122;2022-11-12T11:30:29;8.90;99.90
9509;DHT22;4792;50.088;8.122;2022-11-12T11:33:33;8.70;99.90
9509;DHT22;4792;50.088;8.122;2022-11-12T11:36:15;8.80;99.90
9509;DHT22;4792;50.088;8.122;2022-11-12T11:38:55;8.90;99.90
9509;DHT22;4792;50.088;8.122;2022-11-12T11:41:36;8.90;99.90
9509;DHT22;4792;50.088;8.122;2022-11-12T11:44:15;8.90;99.90
9509;DHT22;4792;50.088;8.122;2022-11-12T11:46:57;9.00;99.90
9509;DHT22;4792;50.088;8.122;2022-11-12T11:49:40;9.10;99.90
9509;DHT22;4792;50.088;8.122;2022-11-12T11:55:19;9.00;99.90
9509;DHT22;4792;50.088;8.122;2022-11-12T11:57:57;9.00;99.90
9509;DHT22;4792;50.088;8.122;2022-11-12T12:00:34;9.00;99.90
9509;DHT22;4792;50.088;8.122;2022-11-12T12:03:19;9.20;99.90
9509;DHT22;4792;50.088;8.122;2022-11-12T12:06:04;9.30;99.90
9509;DHT22;4792;50.088;8.122;2022-11-12T12:08:50;9.40;99.90
9509;DHT22;4792;50.088;8.122;2022-11-12T12:11:22;9.50;99.90
9509;DHT22;4792;50.088;8.122;2022-11-12T12:14:05;9.40;99.90
9509;DHT22;4792;50.088;8.122;2022-11-12T12:16:47;9.30;99.90
9509;DHT22;4792;50.088;8.122;2022-11-12T12:19:45;9.30;99.90
9509;DHT22;4792;50.088;8.122;2022-11-12T12:22:20;9.20;99.90
9509;DHT22;4792;50.088;8.122;2022-11-12T12:24:54;9.20;99.90
9509;DHT22;4792;50.088;8.122;2022-11-12T12:27:26;9.10;99.90
9509;DHT22;4792;50.088;8.122;2022-11-12T12:30:00;9.10;99.90
9509;DHT22;4792;50.088;8.122;2022-11-12T12:32:33;9.20;99.90
9509;DHT22;4792;50.088;8.122;2022-11-12T12:35:12;9.20;99.90
9509;DHT22;4792;50.088;8.122;2022-11-12T12:37:47;9.30;99.90
9509;DHT22;4792;50.088;8.122;2022-11-12T12:40:21;9.40;99.90
9509;DHT22;4792;50.088;8.122;2022-11-12T12:42:52;9.40;99.90
9509;DHT22;4792;50.088;8.122;2022-11-12T12:45:33;9.60;99.90
9509;DHT22;4792;50.088;8.122;2022-11-12T12:48:05;9.60;99.90
9509;DHT22;4792;50.088;8.122;2022-11-12T12:50:38;9.70;99.90
9509;DHT22;4792;50.088;8.122;2022-11-12T12:53:16;9.80;99.90
9509;DHT22;4792;50.088;8.122;2022-11-12T12:55:46;9.90;99.90
9509;DHT22;4792;50.088;8.122;2022-11-12T12:58:17;10.10;99.90
9509;DHT22;4792;50.088;8.122;2022-11-12T13:00:47;10.20;99.90
9509;DHT22;4792;50.088;8.122;2022-11-12T13:03:50;10.40;99.90
9509;DHT22;4792;50.088;8.122;2022-11-12T13:06:26;10.50;99.90
9509;DHT22;4792;50.088;8.122;2022-11-12T13:08:59;10.70;99.90
9509;DHT22;4792;50.088;8.122;2022-11-12T13:11:50;10.80;99.90
9509;DHT22;4792;50.088;8.122;2022-11-12T13:15:07;10.90;99.90
9509;DHT22;4792;50.088;8.122;2022-11-12T13:17:47;10.90;99.90
9509;DHT22;4792;50.088;8.122;2022-11-12T13:23:45;11.20;99.90
9509;DHT22;4792;50.088;8.122;2022-11-12T13:26:52;11.00;99.90
9509;DHT22;4792;50.088;8.122;2022-11-12T13:29:42;10.80;99.90
9509;DHT22;4792;50.088;8.122;2022-11-12T13:32:34;10.60;99.90
9509;DHT22;4792;50.088;8.122;2022-11-12T13:35:18;10.40;99.90
9509;DHT22;4792;50.088;8.122;2022-11-12T13:37:50;10.40;99.90
9509;DHT22;4792;50.088;8.122;2022-11-12T13:40:25;10.30;99.90
9509;DHT22;4792;50.088;8.122;2022-11-12T13:43:06;10.10;99.90
9509;DHT22;4792;50.088;8.122;2022-11-12T13:45:40;9.90;99.90
9509;DHT22;4792;50.088;8.122;2022-11-12T13:48:12;9.60;99.90
9509;DHT22;4792;50.088;8.122;2022-11-12T13:50:46;9.50;99.90
9509;DHT22;4792;50.088;8.122;2022-11-12T13:53:20;9.50;99.90
9509;DHT22;4792;50.088;8.122;2022-11-12T13:55:52;9.30;99.90
9509;DHT22;4792;50.088;8.122;2022-11-12T13:58:26;9.20;99.90
9509;DHT22;4792;50.088;8.122;2022-11-12T14:00:56;9.30;99.90
9509;DHT22;4792;50.088;8.122;2022-11-12T14:03:28;9.20;99.90
9509;DHT22;4792;50.088;8.122;2022-11-12T14:06:01;9.10;99.90
9509;DHT22;4792;50.088;8.122;2022-11-12T14:08:50;9.10;99.90
9509;DHT22;4792;50.088;8.122;2022-11-12T14:11:42;9.20;99.90
9509;DHT22;4792;50.088;8.122;2022-11-12T14:14:21;9.10;99.90
9509;DHT22;4792;50.088;8.122;2022-11-12T14:17:08;9.10;99.90
9509;DHT22;4792;50.088;8.122;2022-11-12T14:20:00;9.20;99.90
9509;DHT22;4792;50.088;8.122;2022-11-12T14:22:38;9.10;99.90
9509;DHT22;4792;50.088;8.122;2022-11-12T14:25:14;9.10;99.90
9509;DHT22;4792;50.088;8.122;2022-11-12T14:27:45;9.20;99.90
9509;DHT22;4792;50.088;8.122;2022-11-12T14:30:17;9.10;99.90
9509;DHT22;4792;50.088;8.122;2022-11-12T14:32:48;9.00;99.90
9509;DHT22;4792;50.088;8.122;2022-11-12T14:35:28;8.90;99.90
9509;DHT22;4792;50.088;8.122;2022-11-12T14:38:02;8.80;99.90
9509;DHT22;4792;50.088;8.122;2022-11-12T14:40:33;8.60;99.90
9509;DHT22;4792;50.088;8.122;2022-11-12T14:43:05;8.60;99.90
9509;DHT22;4792;50.088;8.122;2022-11-12T14:45:33;8.50;99.90
9509;DHT22;4792;50.088;8.122;2022-11-12T14:48:01;8.50;99.90
9509;DHT22;4792;50.088;8.122;2022-11-12T14:50:30;8.50;99.90
9509;DHT22;4792;50.088;8.122;2022-11-12T14:53:11;8.50;99.90
9509;DHT22;4792;50.088;8.122;2022-11-12T14:55:49;8.50;99.90
9509;DHT22;4792;50.088;8.122;2022-11-12T14:58:22;8.60;99.90
9509;DHT22;4792;50.088;8.122;2022-11-12T15:00:52;8.70;99.90
9509;DHT22;4792;50.088;8.122;2022-11-12T15:03:23;8.70;99.90
9509;DHT22;4792;50.088;8.122;2022-11-12T15:05:54;8.80;99.90
9509;DHT22;4792;50.088;8.122;2022-11-12T15:08:30;8.80;99.90
9509;DHT22;4792;50.088;8.122;2022-11-12T15:11:20;8.90;99.90
9509;DHT22;4792;50.088;8.122;2022-11-12T15:13:52;8.90;99.90
9509;DHT22;4792;50.088;8.122;2022-11-12T15:16:23;8.80;99.90
9509;DHT22;4792;50.088;8.122;2022-11-12T15:19:14;8.80;99.90
9509;DHT22;4792;50.088;8.122;2022-11-12T15:21:47;8.70;99.90
9509;DHT22;4792;50.088;8.122;2022-11-12T15:24:19;8.70;99.90
9509;DHT22;4792;50.088;8.122;2022-11-12T15:26:53;8.80;99.90
9509;DHT22;4792;50.088;8.122;2022-11-12T15:29:29;8.80;99.90
9509;DHT22;4792;50.088;8.122;2022-11-12T15:32:01;8.80;99.90
9509;DHT22;4792;50.088;8.122;2022-11-12T15:34:44;8.70;99.90
9509;DHT22;4792;50.088;8.122;2022-11-12T15:37:21;8.60;99.90
9509;DHT22;4792;50.088;8.122;2022-11-12T15:39:53;8.60;99.90
9509;DHT22;4792;50.088;8.122;2022-11-12T15:42:26;8.50;99.90
9509;DHT22;4792;50.088;8.122;2022-11-12T15:44:59;8.50;99.90
9509;DHT22;4792;50.088;8.122;2022-11-12T15:47:27;8.40;99.90
9509;DHT22;4792;50.088;8.122;2022-11-12T15:49:57;8.20;99.90
9509;DHT22;4792;50.088;8.122;2022-11-12T15:52:26;8.00;99.90
9509;DHT22;4792;50.088;8.122;2022-11-12T15:54:54;8.00;99.90
9509;DHT22;4792;50.088;8.122;2022-11-12T15:57:24;7.90;99.90
9509;DHT22;4792;50.088;8.122;2022-11-12T15:59:58;7.90;99.90
9509;DHT22;4792;50.088;8.122;2022-11-12T16:02:33;7.90;99.90
9509;DHT22;4792;50.088;8.122;2022-11-12T16:05:02;8.00;99.90
9509;DHT22;4792;50.088;8.122;2022-11-12T16:07:30;8.00;99.90
9509;DHT22;4792;50.088;8.122;2022-11-12T16:09:58;8.00;99.90
9509;DHT22;4792;50.088;8.122;2022-11-12T16:12:26;7.90;99.90
9509;DHT22;4792;50.088;8.122;2022-11-12T16:14:54;7.90;99.90
9509;DHT22;4792;50.088;8.122;2022-11-12T16:17:26;7.90;99.90
9509;DHT22;4792;50.088;8.122;2022-11-12T16:19:54;7.70;99.90
9509;DHT22;4792;50.088;8.122;2022-11-12T16:22:22;7.70;99.90
9509;DHT22;4792;50.088;8.122;2022-11-12T16:24:50;7.50;99.90
9509;DHT22;4792;50.088;8.122;2022-11-12T16:27:18;7.40;99.90
9509;DHT22;4792;50.088;8.122;2022-11-12T16:29:48;7.40;99.90
9509;DHT22;4792;50.088;8.122;2022-11-12T16:32:16;7.30;99.90
9509;DHT22;4792;50.088;8.122;2022-11-12T16:34:46;7.20;99.90
9509;DHT22;4792;50.088;8.122;2022-11-12T16:37:14;7.20;99.90
9509;DHT22;4792;50.088;8.122;2022-11-12T16:39:42;7.10;99.90
9509;DHT22;4792;50.088;8.122;2022-11-12T16:42:11;7.10;99.90
9509;DHT22;4792;50.088;8.122;2022-11-12T16:44:39;6.90;99.90
9509;DHT22;4792;50.088;8.122;2022-11-12T16:47:09;6.90;99.90
9509;DHT22;4792;50.088;8.122;2022-11-12T16:49:37;6.90;99.90
9509;DHT22;4792;50.088;8.122;2022-11-12T16:52:09;6.80;99.90
9509;DHT22;4792;50.088;8.122;2022-11-12T16:54:37;6.80;99.90
9509;DHT22;4792;50.088;8.122;2022-11-12T16:57:05;6.80;99.90